Time;durP1;ratioP1;P1;durP2;ratioP2;P2;SDS_P1;SDS_P2;PMS_P1;PMS_P2;Temp;Humidity;BMP_temperature;BMP_pressure;BME280_temperature;BME280_humidity;BME280_pressure;Samples;Min_cycle;Max_cycle;Signal;HPM_P1;HPM_P2
2023/04/19 00:00:20;;;;;;;35.40;7.47;;;;;;;24.44;63.35;98215.22;4798444;29;20125;-63
2023/04/19 00:02:50;;;;;;;37.80;7.88;;;;;;;24.45;63.23;98216.84;4770176;29;20438;-61
2023/04/19 00:05:22;;;;;;;28.23;8.13;;;;;;;24.37;63.81;98212.91;4804889;29;20062;-61
2023/04/19 00:07:52;;;;;;;35.15;7.43;;;;;;;24.37;63.23;98212.09;4804892;29;20513;-61
2023/04/19 00:10:21;;;;;;;43.72;9.73;;;;;;;24.40;63.02;98206.09;4796733;29;20059;-60
2023/04/19 00:12:52;;;;;;;32.03;7.32;;;;;;;24.41;62.58;98213.13;4797577;29;20453;-61
2023/04/19 00:15:21;;;;;;;36.35;7.65;;;;;;;24.35;62.81;98209.69;4797800;29;20062;-60
2023/04/19 00:17:51;;;;;;;38.95;7.57;;;;;;;24.32;62.98;98204.06;4799629;29;20365;-60
2023/04/19 00:20:21;;;;;;;31.75;8.43;;;;;;;24.23;63.01;98195.78;4796651;29;20058;-60
2023/04/19 00:22:51;;;;;;;38.40;7.75;;;;;;;24.22;62.87;98194.19;4800785;29;20082;-61
2023/04/19 00:25:20;;;;;;;30.33;8.23;;;;;;;24.17;63.58;98203.16;4800938;29;20063;-60
2023/04/19 00:27:49;;;;;;;33.05;9.15;;;;;;;24.11;63.37;98204.31;4800734;29;20761;-60
2023/04/19 00:30:20;;;;;;;35.75;8.52;;;;;;;24.09;63.33;98205.69;4782830;29;20058;-60
2023/04/19 00:32:51;;;;;;;40.88;8.68;;;;;;;24.13;64.01;98206.72;4799235;29;20068;-60
2023/04/19 00:35:20;;;;;;;42.15;9.18;;;;;;;24.11;64.28;98211.63;4800812;29;20061;-60
2023/04/19 00:37:49;;;;;;;42.92;8.38;;;;;;;24.12;64.04;98221.34;4798881;29;20058;-60
2023/04/19 00:40:19;;;;;;;38.38;9.30;;;;;;;24.03;63.83;98232.00;4798269;29;20058;-60
2023/04/19 00:42:49;;;;;;;46.50;8.57;;;;;;;24.04;64.65;98225.50;4814877;29;20065;-61
2023/04/19 00:45:18;;;;;;;47.83;8.60;;;;;;;23.97;65.04;98227.78;4816915;29;20054;-62
2023/04/19 00:47:47;;;;;;;34.45;7.32;;;;;;;24.02;64.51;98225.03;4830207;29;20725;-59
2023/04/19 00:50:19;;;;;;;41.33;8.10;;;;;;;24.01;64.64;98222.59;4816394;29;20065;-60
2023/04/19 00:52:48;;;;;;;39.05;9.00;;;;;;;24.03;64.72;98231.22;4817384;29;20054;-60
2023/04/19 00:55:18;;;;;;;44.17;9.13;;;;;;;24.00;64.39;98224.50;4816977;29;20074;-60
2023/04/19 00:57:47;;;;;;;52.28;9.10;;;;;;;24.01;64.51;98242.34;4817460;29;20050;-59
2023/04/19 01:00:18;;;;;;;45.45;9.32;;;;;;;24.00;64.58;98246.13;4815937;29;20146;-62
2023/04/19 01:02:48;;;;;;;55.80;11.38;;;;;;;24.05;64.56;98256.91;4812913;29;20046;-59
2023/04/19 01:05:18;;;;;;;51.08;9.55;;;;;;;24.02;64.63;98262.91;4815396;29;20166;-60
2023/04/19 01:07:48;;;;;;;53.53;10.48;;;;;;;24.08;64.75;98263.63;4816899;29;20153;-61
2023/04/19 01:10:18;;;;;;;43.20;8.45;;;;;;;24.06;65.07;98271.22;4813661;29;20752;-61
2023/04/19 01:12:49;;;;;;;55.00;9.17;;;;;;;24.05;64.99;98272.31;4810403;29;20423;-60
2023/04/19 01:15:19;;;;;;;45.92;10.18;;;;;;;24.06;64.19;98276.66;4798603;29;20553;-60
2023/04/19 01:17:49;;;;;;;40.30;9.07;;;;;;;24.05;64.42;98283.16;4799046;29;20061;-60
2023/04/19 01:20:21;;;;;;;52.95;10.10;;;;;;;24.07;64.51;98279.06;4799093;29;20055;-60
2023/04/19 01:22:50;;;;;;;43.13;7.68;;;;;;;24.05;64.58;98283.16;4798635;29;20083;-61
2023/04/19 01:25:20;;;;;;;43.15;8.93;;;;;;;24.06;63.97;98287.47;4799428;29;20073;-62
2023/04/19 01:27:49;;;;;;;53.13;9.32;;;;;;;24.07;62.81;98287.19;4799159;29;20050;-61
2023/04/19 01:30:18;;;;;;;53.90;10.23;;;;;;;24.07;62.52;98287.19;4799458;29;20539;-64
2023/04/19 01:32:48;;;;;;;41.53;9.45;;;;;;;24.11;62.37;98287.41;4798249;29;20051;-61
2023/04/19 01:35:17;;;;;;;33.25;7.90;;;;;;;24.10;62.52;98283.88;4797878;29;20404;-60
2023/04/19 01:37:54;;;;;;;39.22;8.35;;;;;;;24.11;62.37;98293.63;4798764;29;20154;-61
2023/04/19 01:40:30;;;;;;;43.70;8.98;;;;;;;24.26;61.23;98302.66;4797387;29;20368;-63
2023/04/19 01:42:59;;;;;;;37.65;7.45;;;;;;;24.31;60.92;98308.00;4811354;29;20136;-61
2023/04/19 01:45:29;;;;;;;31.33;6.90;;;;;;;24.31;61.03;98321.53;4815637;29;20126;-60
2023/04/19 01:47:58;;;;;;;30.35;7.03;;;;;;;24.32;60.62;98317.75;4816616;29;20058;-63
2023/04/19 01:50:28;;;;;;;31.10;5.47;;;;;;;24.34;59.89;98316.34;4817760;29;20365;-61
2023/04/19 01:52:58;;;;;;;32.88;6.15;;;;;;;24.43;59.73;98327.34;4816728;29;20050;-61
2023/04/19 01:55:30;;;;;;;25.25;5.25;;;;;;;24.51;59.29;98332.09;4809853;29;20057;-61
2023/04/19 01:58:00;;;;;;;25.17;6.32;;;;;;;24.59;57.70;98334.16;4817653;29;20058;-61
2023/04/19 02:00:29;;;;;;;27.83;6.50;;;;;;;24.74;58.29;98350.19;4831281;29;20065;-62
2023/04/19 02:03:03;;;;;;;22.17;5.32;;;;;;;24.96;57.56;98350.41;4815222;29;20059;-64
2023/04/19 02:05:34;;;;;;;22.50;6.55;;;;;;;25.09;57.14;98362.44;4816315;29;20474;-63
2023/04/19 02:08:03;;;;;;;29.35;5.70;;;;;;;25.11;57.17;98362.13;4815786;29;20137;-62
2023/04/19 02:10:33;;;;;;;21.77;6.45;;;;;;;25.15;57.41;98363.97;4816454;29;20061;-62
2023/04/19 02:13:03;;;;;;;26.15;6.80;;;;;;;25.30;57.81;98371.03;4815937;29;20786;-62
2023/04/19 02:15:35;;;;;;;28.60;7.97;;;;;;;25.44;57.02;98366.47;4816433;29;20122;-62
2023/04/19 02:18:05;;;;;;;39.58;12.25;;;;;;;25.48;57.08;98383.75;4830910;29;20111;-61
2023/04/19 02:20:35;;;;;;;50.20;18.13;;;;;;;25.58;56.28;98386.31;4816363;29;20137;-63
2023/04/19 02:23:04;;;;;;;49.00;18.88;;;;;;;25.73;54.83;98386.06;4830934;29;20050;-62
2023/04/19 02:25:34;;;;;;;49.78;16.45;;;;;;;26.08;53.40;98379.16;4815917;29;20072;-61
2023/04/19 02:28:03;;;;;;;52.60;17.75;;;;;;;26.30;53.30;98386.63;4815205;29;20149;-61
2023/04/19 02:30:32;;;;;;;43.58;15.65;;;;;;;26.40;51.31;98408.16;4816422;29;20088;-60
2023/04/19 02:33:02;;;;;;;34.13;13.82;;;;;;;26.38;52.61;98411.16;4815717;29;20145;-61
2023/04/19 02:35:31;;;;;;;31.52;11.40;;;;;;;26.72;51.09;98397.16;4817204;29;20157;-61
2023/04/19 02:38:04;;;;;;;31.38;9.05;;;;;;;27.13;50.70;98410.66;4817065;29;20058;-62
2023/04/19 02:40:33;;;;;;;32.50;8.70;;;;;;;27.63;49.43;98416.03;4817365;29;20066;-61
2023/04/19 02:43:03;;;;;;;31.92;8.52;;;;;;;27.99;48.40;98405.03;4815776;29;20051;-61
2023/04/19 02:45:33;;;;;;;33.08;9.68;;;;;;;28.12;48.26;98407.69;4816271;29;20058;-61
2023/04/19 02:48:03;;;;;;;36.83;10.10;;;;;;;28.30;47.70;98414.00;4814943;29;20055;-61
2023/04/19 02:50:32;;;;;;;45.13;9.02;;;;;;;28.36;47.65;98414.66;4799378;29;20383;-63
2023/04/19 02:53:02;;;;;;;43.85;9.82;;;;;;;27.96;48.88;98425.53;4819394;29;20084;-61
2023/04/19 02:55:32;;;;;;;35.03;8.45;;;;;;;27.52;49.21;98429.09;4829152;29;20376;-63
2023/04/19 02:58:10;;;;;;;46.63;8.95;;;;;;;27.10;50.95;98432.22;4815467;29;20559;-62
2023/04/19 03:00:47;;;;;;;31.73;8.57;;;;;;;26.70;51.96;98434.69;4814092;29;20058;-62
2023/04/19 03:03:20;;;;;;;;;;;;;;;26.69;52.90;98443.13;4812087;29;20078;-61
2023/04/19 03:05:49;;;;;;;32.42;10.30;;;;;;;27.05;53.03;98429.63;4802426;29;20577;-62
2023/04/19 03:08:19;;;;;;;42.65;10.82;;;;;;;27.03;53.63;98437.28;4821451;29;20095;-63
2023/04/19 03:10:49;;;;;;;48.88;11.20;;;;;;;26.77;54.59;98432.38;4814719;29;20449;-62
2023/04/19 03:13:18;;;;;;;40.70;10.90;;;;;;;26.56;55.48;98439.34;4809668;29;20069;-61
2023/04/19 03:15:48;;;;;;;48.60;11.55;;;;;;;26.49;55.72;98444.38;4815436;29;20058;-61
2023/04/19 03:18:21;;;;;;;40.75;9.45;;;;;;;26.52;55.43;98435.63;4807995;29;20494;-61
2023/04/19 03:20:54;;;;;;;37.80;8.93;;;;;;;26.54;55.75;98427.16;4797282;29;20123;-61
2023/04/19 03:23:25;;;;;;;37.30;8.95;;;;;;;26.35;55.96;98433.50;4807032;29;20050;-61
2023/04/19 03:25:59;;;;;;;40.22;8.38;;;;;;;26.53;55.66;98436.41;4815709;29;20570;-63
2023/04/19 03:28:36;;;;;;;45.60;10.93;;;;;;;26.54;55.12;98441.56;4815983;29;20050;-60
2023/04/19 03:31:12;;;;;;;30.17;9.82;;;;;;;26.58;54.62;98430.88;4819050;29;20046;-62
2023/04/19 03:33:42;;;;;;;29.00;7.55;;;;;;;26.13;53.11;98440.69;4818702;29;20068;-61
2023/04/19 03:36:13;;;;;;;29.15;7.20;;;;;;;26.22;54.82;98442.47;4818504;29;20543;-61
2023/04/19 03:38:44;;;;;;;27.10;6.55;;;;;;;26.32;54.51;98444.19;4834565;29;20574;-62
2023/04/19 03:41:23;;;;;;;22.08;6.38;;;;;;;26.47;54.14;98440.34;4820707;29;20395;-60
2023/04/19 03:44:04;;;;;;;24.40;6.38;;;;;;;26.37;54.40;98449.50;4833874;29;20054;-61
2023/04/19 03:46:34;;;;;;;18.77;5.18;;;;;;;26.38;53.61;98441.03;4804135;29;20485;-61
2023/04/19 03:49:03;;;;;;;21.88;5.50;;;;;;;26.47;54.09;98435.72;4803772;29;20141;-62
2023/04/19 03:51:33;;;;;;;20.83;4.68;;;;;;;26.26;53.45;98438.03;4821378;29;20068;-61
2023/04/19 03:54:03;;;;;;;24.63;5.35;;;;;;;26.18;53.34;98437.91;4821207;29;20524;-59
2023/04/19 03:56:32;;;;;;;15.82;3.67;;;;;;;26.36;54.11;98442.47;4821773;29;20081;-60
2023/04/19 03:59:01;;;;;;;26.67;5.78;;;;;;;26.02;53.73;98448.25;4820657;29;20175;-60
2023/04/19 04:01:40;;;;;;;24.05;5.22;;;;;;;26.32;54.51;98439.56;4821374;29;20054;-60
2023/04/19 04:04:13;;;;;;;22.85;5.85;;;;;;;26.35;55.22;98443.56;4821959;29;20061;-63
2023/04/19 04:06:45;;;;;;;17.77;5.20;;;;;;;26.24;54.61;98447.59;4836511;29;20053;-61
2023/04/19 04:09:16;;;;;;;25.10;5.00;;;;;;;26.42;54.89;98460.28;4836268;29;20050;-61
2023/04/19 04:11:46;;;;;;;19.45;4.88;;;;;;;26.54;52.52;98454.34;4805698;29;20149;-60
2023/04/19 04:14:15;;;;;;;24.85;5.28;;;;;;;26.42;53.13;98451.31;4820930;29;20070;-61
2023/04/19 04:16:46;;;;;;;20.77;4.97;;;;;;;26.42;54.71;98454.84;4821201;29;20068;-60
2023/04/19 04:19:17;;;;;;;20.98;4.78;;;;;;;26.62;55.14;98448.19;4820666;29;20122;-61
2023/04/19 04:21:48;;;;;;;24.00;5.07;;;;;;;26.99;54.44;98439.81;4821101;29;20141;-62
2023/04/19 04:24:19;;;;;;;24.55;5.10;;;;;;;27.32;54.08;98451.28;4820894;29;20076;-64
2023/04/19 04:27:04;;;;;;;21.75;4.90;;;;;;;27.12;53.09;98457.22;4809755;29;20153;-61
2023/04/19 04:29:36;;;;;;;25.92;5.32;;;;;;;27.10;53.79;98451.25;4815210;29;20130;-58
2023/04/19 04:32:09;;;;;;;17.33;4.82;;;;;;;27.04;54.47;98457.94;4827453;29;20072;-57
2023/04/19 04:34:41;;;;;;;23.05;4.97;;;;;;;27.21;52.85;98447.22;4815712;29;20054;-57
2023/04/19 04:37:17;;;;;;;21.55;5.22;;;;;;;27.39;53.84;98443.53;4827789;29;20359;-61
2023/04/19 04:39:47;;;;;;;24.30;4.93;;;;;;;27.14;52.67;98438.66;4822279;29;20054;-61
2023/04/19 04:42:20;;;;;;;17.25;4.40;;;;;;;27.37;52.94;98439.50;4821009;29;20054;-60
2023/04/19 04:44:49;;;;;;;20.00;4.55;;;;;;;27.54;53.20;98436.94;4830410;29;20081;-58
2023/04/19 04:47:20;;;;;;;16.23;5.20;;;;;;;27.53;53.27;98427.97;4822552;29;20054;-58
2023/04/19 04:49:53;;;;;;;27.83;6.90;;;;;;;27.49;51.87;98437.84;4842207;29;20088;-54
2023/04/19 04:52:23;;;;;;;17.92;4.28;;;;;;;27.72;51.29;98432.41;4807914;29;20058;-57
2023/04/19 04:55:05;;;;;;;22.92;4.75;;;;;;;27.76;50.40;98439.63;4826739;29;20614;-56
2023/04/19 04:57:39;;;;;;;21.30;4.65;;;;;;;28.09;50.17;98430.06;4805201;29;20602;-59
2023/04/19 05:00:14;;;;;;;17.05;5.03;;;;;;;28.28;49.43;98437.25;4814362;29;20110;-58
2023/04/19 05:02:53;;;;;;;18.23;3.88;;;;;;;28.67;50.30;98441.84;4802386;29;20119;-59
2023/04/19 05:05:23;;;;;;;14.50;4.75;;;;;;;28.69;49.07;98437.69;4825714;29;20588;-60
2023/04/19 05:07:55;;;;;;;21.52;3.97;;;;;;;28.97;49.03;98441.78;4829164;29;20043;-56
2023/04/19 05:10:25;;;;;;;12.88;3.95;;;;;;;29.02;48.38;98436.19;4827716;29;20939;-58
2023/04/19 05:12:55;;;;;;;14.55;4.65;;;;;;;29.11;47.14;98427.19;4809328;29;20054;-59
2023/04/19 05:15:25;;;;;;;23.10;4.82;;;;;;;28.86;48.35;98439.66;4808564;29;20054;-56
2023/04/19 05:17:55;;;;;;;16.90;4.95;;;;;;;29.13;48.17;98430.38;4814267;29;20073;-57
2023/04/19 05:20:26;;;;;;;12.77;3.60;;;;;;;29.40;47.07;98428.19;4820571;29;20054;-57
2023/04/19 05:23:06;;;;;;;18.05;4.30;;;;;;;29.35;46.79;98436.53;4826528;29;20061;-58
2023/04/19 05:25:37;;;;;;;15.65;4.15;;;;;;;29.28;47.70;98433.47;4813248;29;20061;-56
2023/04/19 05:28:06;;;;;;;18.20;5.35;;;;;;;29.23;48.71;98430.88;4815041;29;20423;-51
2023/04/19 05:30:54;;;;;;;19.73;4.55;;;;;;;29.37;49.30;98431.56;4810661;29;20050;-60
2023/04/19 05:33:26;;;;;;;18.67;5.57;;;;;;;29.63;49.31;98437.00;4811462;29;20823;-59
2023/04/19 05:35:57;;;;;;;25.50;5.70;;;;;;;29.71;47.24;98438.09;4812287;29;20499;-56
2023/04/19 05:38:28;;;;;;;14.57;4.82;;;;;;;29.53;47.71;98429.13;4830692;29;20069;-58
2023/04/19 05:41:03;;;;;;;27.35;7.97;;;;;;;29.69;49.49;98435.72;4812644;29;20056;-58
2023/04/19 05:43:32;;;;;;;15.65;6.07;;;;;;;29.58;48.27;98428.16;4816742;29;20495;-62
2023/04/19 05:46:02;;;;;;;17.50;5.30;;;;;;;29.65;46.18;98425.75;4812908;29;21304;-59
2023/04/19 05:49:04;;;;;;;18.95;4.47;;;;;;;29.70;43.36;98428.28;4833590;29;20053;-59
2023/04/19 05:51:38;;;;;;;17.27;3.60;;;;;;;30.31;42.62;98419.66;4829452;29;20123;-60
2023/04/19 05:54:15;;;;;;;15.50;4.47;;;;;;;30.02;43.39;98405.13;4809162;29;20041;-59
2023/04/19 05:56:47;;;;;;;14.18;3.75;;;;;;;30.26;44.40;98408.09;4811905;29;20064;-59
2023/04/19 05:59:17;;;;;;;28.52;4.80;;;;;;;30.41;43.69;98401.25;4814648;29;20081;-58
2023/04/19 06:01:47;;;;;;;13.70;4.28;;;;;;;30.61;44.81;98386.88;4817008;29;20065;-60
2023/04/19 06:04:16;;;;;;;16.92;5.28;;;;;;;30.90;44.24;98397.75;4815403;29;20129;-58
2023/04/19 06:06:47;;;;;;;15.35;6.07;;;;;;;31.18;43.66;98392.59;4814314;29;20050;-60
2023/04/19 06:09:19;;;;;;;18.88;6.18;;;;;;;29.82;41.29;98398.41;4827499;29;20058;-60
2023/04/19 06:11:49;;;;;;;15.85;6.00;;;;;;;30.59;43.21;98386.38;4810380;29;20111;-58
2023/04/19 06:14:19;;;;;;;19.05;7.13;;;;;;;31.05;43.75;98386.25;4821253;29;20875;-60
2023/04/19 06:16:49;;;;;;;15.23;6.80;;;;;;;30.99;46.12;98376.63;4817673;29;20049;-61
2023/04/19 06:19:20;;;;;;;14.95;4.25;;;;;;;30.29;43.90;98385.56;4833112;29;20050;-60
2023/04/19 06:21:50;;;;;;;13.57;3.83;;;;;;;30.70;41.26;98372.00;4834787;29;20054;-62
2023/04/19 06:24:30;;;;;;;13.95;3.67;;;;;;;30.65;41.93;98365.94;4817430;29;20145;-59
2023/04/19 06:27:57;;;;;;;22.70;4.68;;;;;;;30.88;42.67;98358.22;4825215;29;20053;-60
2023/04/19 06:30:27;;;;;;;17.88;4.60;;;;;;;30.62;39.53;98352.94;4834225;29;20496;-59
2023/04/19 06:32:57;;;;;;;20.90;7.32;;;;;;;30.44;40.92;98357.69;4819636;29;20050;-60
2023/04/19 06:35:27;;;;;;;24.27;7.88;;;;;;;30.43;43.82;98350.59;4818637;29;20476;-60
2023/04/19 06:37:56;;;;;;;21.33;7.03;;;;;;;30.60;44.88;98341.50;4820758;29;20093;-58
2023/04/19 06:40:27;;;;;;;24.50;8.77;;;;;;;30.65;45.71;98333.13;4816031;29;20149;-60
2023/04/19 06:42:57;;;;;;;22.75;8.75;;;;;;;30.72;47.14;98331.44;4829336;29;20082;-59
2023/04/19 06:45:28;;;;;;;28.50;8.85;;;;;;;30.52;40.29;98325.97;4832864;29;20054;-60
2023/04/19 06:47:57;;;;;;;18.90;8.13;;;;;;;30.20;44.21;98322.75;4835309;29;20046;-61
2023/04/19 06:50:27;;;;;;;27.88;7.30;;;;;;;30.56;45.18;98324.19;4818144;29;20509;-59
2023/04/19 06:52:57;;;;;;;21.15;6.07;;;;;;;30.80;43.73;98321.59;4818676;29;20060;-60
2023/04/19 06:55:26;;;;;;;12.95;5.00;;;;;;;30.88;43.96;98311.72;4818769;29;20148;-60
2023/04/19 06:57:56;;;;;;;19.73;4.72;;;;;;;30.94;39.57;98315.81;4833054;29;20073;-59
2023/04/19 07:00:25;;;;;;;11.85;4.57;;;;;;;30.60;42.48;98309.50;4831362;29;20474;-61
2023/04/19 07:02:55;;;;;;;10.57;5.07;;;;;;;30.85;42.30;98298.72;4835129;29;20062;-59
2023/04/19 07:05:25;;;;;;;10.68;4.53;;;;;;;30.62;40.77;98296.31;4834938;29;20062;-60
2023/04/19 07:07:55;;;;;;;13.38;6.10;;;;;;;30.70;39.86;98289.97;4836765;29;20064;-60
2023/04/19 07:10:25;;;;;;;13.40;5.93;;;;;;;30.38;43.12;98284.41;4829279;29;20062;-61
2023/04/19 07:12:55;;;;;;;23.10;6.22;;;;;;;30.54;43.57;98271.75;4836073;29;20153;-61
2023/04/19 07:15:24;;;;;;;16.20;6.28;;;;;;;30.42;44.08;98271.66;4836666;29;20050;-59
2023/04/19 07:17:54;;;;;;;22.23;8.10;;;;;;;30.54;44.07;98277.22;4833063;29;20149;-59
2023/04/19 07:20:24;;;;;;;18.48;6.13;;;;;;;30.61;41.76;98277.50;4814419;29;20128;-60
2023/04/19 07:22:53;;;;;;;14.98;5.95;;;;;;;30.78;44.04;98271.91;4838149;29;20485;-60
2023/04/19 07:25:23;;;;;;;20.75;5.65;;;;;;;30.77;42.86;98273.03;4833153;29;20513;-60
2023/04/19 07:27:55;;;;;;;15.38;5.35;;;;;;;30.62;42.49;98265.44;4838077;29;20478;-59
2023/04/19 07:31:24;;;;;;;14.02;4.82;;;;;;;30.73;43.38;98256.50;4832415;29;20054;-60
2023/04/19 07:34:51;;;;;;;18.80;5.47;;;;;;;30.38;42.74;98248.88;4819103;29;20050;-60
2023/04/19 07:38:20;;;;;;;12.85;4.85;;;;;;;30.33;44.25;98239.75;4837083;29;20793;-60
2023/04/19 07:41:48;;;;;;;11.30;4.70;;;;;;;30.55;45.04;98240.56;4836820;29;20137;-61
2023/04/19 07:44:18;;;;;;;15.30;5.07;;;;;;;30.52;45.36;98228.38;4813572;29;20070;-60
2023/04/19 07:46:48;;;;;;;11.30;4.35;;;;;;;29.99;44.09;98228.25;4817726;29;20050;-62
2023/04/19 07:49:26;;;;;;;17.42;4.90;;;;;;;29.84;45.68;98221.38;4819426;29;20058;-60
2023/04/19 07:52:02;;;;;;;17.40;5.13;;;;;;;29.65;46.37;98223.75;4785952;29;20134;-61
2023/04/19 07:54:31;;;;;;;12.40;4.72;;;;;;;29.58;45.50;98207.06;4819177;29;20422;-61
2023/04/19 07:57:31;;;;;;;14.57;5.28;;;;;;;29.60;45.03;98204.81;4817944;29;20091;-60
2023/04/19 08:00:01;;;;;;;17.55;4.60;;;;;;;29.70;45.15;98198.97;4816982;29;20126;-61
2023/04/19 08:03:29;;;;;;;12.50;3.83;;;;;;;29.77;44.29;98202.00;4811437;29;20431;-60
2023/04/19 08:06:29;;;;;;;14.13;4.75;;;;;;;29.64;44.21;98190.19;4813962;29;20619;-60
2023/04/19 08:09:00;;;;;;;9.65;4.10;;;;;;;29.82;41.58;98190.91;4815387;29;20046;-60
2023/04/19 08:11:29;;;;;;;17.15;5.40;;;;;;;29.81;40.50;98195.56;4810874;29;20065;-62
2023/04/19 08:13:59;;;;;;;17.75;5.75;;;;;;;29.62;41.97;98181.53;4815667;29;20054;-60
2023/04/19 08:16:45;;;;;;;13.20;5.38;;;;;;;29.74;42.06;98183.56;4813427;29;20316;-60
2023/04/19 08:19:19;;;;;;;13.30;4.70;;;;;;;29.89;42.15;98181.06;4816514;29;20137;-60
2023/04/19 08:21:48;;;;;;;11.13;4.05;;;;;;;29.66;42.93;98178.94;4809343;29;20086;-61
2023/04/19 08:24:22;;;;;;;21.15;6.65;;;;;;;29.63;39.94;98158.56;4815532;29;20130;-63
2023/04/19 08:26:53;;;;;;;12.60;4.22;;;;;;;29.80;43.38;98165.84;4804415;29;20502;-60
2023/04/19 08:29:24;;;;;;;24.83;5.37;;;;;;;29.81;40.75;98151.88;4810804;29;20490;-60
2023/04/19 08:31:54;;;;;;;11.32;4.35;;;;;;;30.07;44.08;98146.25;4808553;29;20759;-60
2023/04/19 08:34:24;;;;;;;17.13;5.55;;;;;;;30.31;46.24;98142.84;4809015;29;20070;-60
2023/04/19 08:36:53;;;;;;;14.95;5.20;;;;;;;30.17;45.90;98142.31;4811400;29;20732;-61
2023/04/19 08:39:31;;;;;;;13.23;5.15;;;;;;;29.93;45.79;98139.44;4814260;29;20065;-60
2023/04/19 08:42:07;;;;;;;14.65;6.03;;;;;;;29.85;45.57;98130.94;4806925;29;20070;-58
2023/04/19 08:44:54;;;;;;;12.27;4.75;;;;;;;29.88;45.57;98124.03;4812694;29;20074;-59
2023/04/19 08:47:27;;;;;;;13.07;5.85;;;;;;;29.71;45.38;98114.03;4813090;29;20142;-60
2023/04/19 08:50:06;;;;;;;16.48;4.93;;;;;;;29.74;43.42;98115.31;4822756;29;20130;-62
2023/04/19 08:52:59;;;;;;;15.48;5.03;;;;;;;29.70;45.87;98117.06;4815276;29;20046;-61
2023/04/19 08:55:53;;;;;;;16.10;5.40;;;;;;;29.63;46.03;98105.91;4814058;29;20054;-60
2023/04/19 08:58:42;;;;;;;13.38;4.90;;;;;;;29.57;46.56;98108.00;4814798;29;20058;-62
2023/04/19 09:01:31;;;;;;;17.02;4.93;;;;;;;29.55;46.74;98099.38;4813822;29;20061;-61
2023/04/19 09:04:06;;;;;;;16.80;5.10;;;;;;;29.61;46.21;98103.47;4810355;29;20134;-61
2023/04/19 09:06:40;;;;;;;14.88;5.85;;;;;;;29.44;46.71;98092.69;4782169;29;20065;-62
2023/04/19 09:09:18;;;;;;;16.50;5.85;;;;;;;29.24;47.33;98099.69;4815578;29;20095;-59
2023/04/19 09:13:06;;;;;;;13.48;5.57;;;;;;;29.11;46.73;98095.25;4806157;29;20142;-65
2023/04/19 09:16:35;;;;;;;15.77;4.75;;;;;;;29.20;46.17;98093.28;4811870;29;20458;-63
2023/04/19 09:20:06;;;;;;;14.15;4.72;;;;;;;29.27;45.98;98070.94;4812624;29;20038;-59
2023/04/19 09:23:48;;;;;;;15.95;3.92;;;;;;;29.40;46.60;98069.91;4812033;29;20599;-60
2023/04/19 09:27:40;;;;;;;11.95;4.45;;;;;;;29.23;46.43;98057.16;4811763;29;20078;-64
2023/04/19 09:30:14;;;;;;;10.35;4.45;;;;;;;29.15;46.49;98060.72;4806853;29;20054;-65
2023/04/19 09:33:00;;;;;;;11.85;5.00;;;;;;;28.84;46.73;98054.78;4822373;29;20050;-64
2023/04/19 09:35:47;;;;;;;12.95;4.88;;;;;;;28.93;47.16;98055.56;4803038;29;20054;-65
2023/04/19 09:38:21;;;;;;;14.70;5.53;;;;;;;28.79;46.88;98047.59;4822301;29;20042;-64
2023/04/19 09:40:52;;;;;;;17.08;6.28;;;;;;;28.71;47.67;98040.25;4811211;29;20054;-64
2023/04/19 09:43:24;;;;;;;19.33;6.53;;;;;;;28.73;47.31;98034.44;4815792;29;20453;-64
2023/04/19 09:46:48;;;;;;;20.83;8.10;;;;;;;28.79;47.94;98044.88;4820928;29;20077;-61
2023/04/19 09:50:12;;;;;;;19.95;6.85;;;;;;;28.99;45.65;98040.59;4825334;29;20065;-61
2023/04/19 09:52:54;;;;;;;28.85;7.20;;;;;;;29.15;43.55;98028.00;4825990;29;20143;-63
2023/04/19 09:55:57;;;;;;;24.27;8.10;;;;;;;29.45;40.81;98028.78;4816156;29;20914;-60
2023/04/19 09:58:32;;;;;;;21.92;8.95;;;;;;;29.39;45.73;98028.19;4814256;29;20486;-64
2023/04/19 10:01:21;;;;;;;22.30;7.65;;;;;;;29.27;44.32;98021.81;4830988;29;20081;-64
2023/04/19 10:03:53;;;;;;;;;;;;;;;29.19;44.50;98022.69;4829896;29;20050;-62
2023/04/19 10:06:45;;;;;;;15.27;7.47;;;;;;;29.12;46.29;98014.22;4813107;29;19929;-62
2023/04/19 10:09:24;;;;;;;14.98;7.18;;;;;;;29.04;45.38;98010.41;4817766;29;20068;-63
2023/04/19 10:12:00;;;;;;;19.50;8.02;;;;;;;29.16;42.90;98013.25;4831535;29;20060;-63
2023/04/19 10:14:56;;;;;;;14.85;7.68;;;;;;;29.06;46.35;98010.88;4810448;29;20061;-62
2023/04/19 10:17:29;;;;;;;17.63;7.07;;;;;;;28.86;46.68;98017.88;4821796;29;20130;-62
2023/04/19 10:20:10;;;;;;;17.75;7.55;;;;;;;28.83;45.06;98006.84;4812904;29;20073;-63
2023/04/19 10:22:41;;;;;;;16.73;7.72;;;;;;;28.89;44.88;98000.88;4828531;29;20054;-65
2023/04/19 10:25:14;;;;;;;16.95;7.28;;;;;;;28.93;44.96;97992.84;4824195;29;20053;-62
2023/04/19 10:27:50;;;;;;;21.63;7.50;;;;;;;28.85;44.34;97999.16;4830747;29;20815;-62
2023/04/19 10:30:29;;;;;;;22.15;7.45;;;;;;;28.87;46.08;97992.22;4828008;29;20140;-66
2023/04/19 10:33:01;;;;;;;18.42;8.63;;;;;;;28.94;45.78;97983.53;4801297;29;20509;-66
2023/04/19 10:35:38;;;;;;;21.25;8.85;;;;;;;28.97;46.34;97980.16;4829168;29;20686;-64
2023/04/19 10:38:16;;;;;;;21.52;8.70;;;;;;;28.97;45.26;97975.50;4826042;29;20068;-63
2023/04/19 10:40:54;;;;;;;25.73;8.93;;;;;;;28.90;43.73;97983.38;4816817;29;20050;-67
2023/04/19 10:43:27;;;;;;;25.98;8.63;;;;;;;29.04;44.34;97969.50;4813475;29;20149;-66
2023/04/19 10:46:35;;;;;;;27.23;8.23;;;;;;;29.09;45.83;97971.25;4813791;29;20050;-64
2023/04/19 10:49:08;;;;;;;20.50;7.03;;;;;;;29.08;47.38;97975.88;4794395;29;20050;-63
2023/04/19 10:51:43;;;;;;;;;;;;;;;29.16;46.56;97969.59;4795311;29;20127;-65
2023/04/19 10:54:36;;;;;;;;;;;;;;;29.16;47.11;97960.63;4811374;29;19935;-68
2023/04/19 10:57:10;;;;;;;24.90;7.68;;;;;;;29.16;46.57;97963.34;4816120;29;20356;-69
2023/04/19 10:59:43;;;;;;;19.13;5.72;;;;;;;29.14;43.75;97958.22;4822572;29;20122;-65
2023/04/19 11:02:26;;;;;;;17.10;5.43;;;;;;;29.20;45.39;97956.09;4814019;29;20547;-65
2023/04/19 11:05:05;;;;;;;21.15;6.22;;;;;;;29.07;47.42;97968.06;4805406;29;20129;-64
2023/04/19 11:07:56;;;;;;;19.77;6.38;;;;;;;28.80;50.10;97963.88;4796302;29;20178;-63
2023/04/19 11:11:26;;;;;;;25.30;6.70;;;;;;;28.44;52.41;97964.34;4814119;29;20157;-71
2023/04/19 11:15:02;;;;;;;21.48;6.40;;;;;;;28.14;53.32;97960.78;4810316;29;20052;-69
2023/04/19 11:18:33;;;;;;;24.60;7.30;;;;;;;28.05;54.36;97965.41;4804051;29;20086;-67
2023/04/19 11:21:04;;;;;;;34.60;7.30;;;;;;;27.98;54.18;97965.09;4809300;29;20050;-69
2023/04/19 11:23:35;;;;;;;26.90;7.93;;;;;;;27.94;53.92;97961.41;4810728;29;20058;-67
2023/04/19 11:33:44;;;;;;;21.38;7.15;;;;;;;27.68;55.31;97962.25;4807946;29;20062;-66
2023/04/19 11:36:14;;;;;;;21.80;7.10;;;;;;;27.55;55.64;97957.78;4805644;29;20479;-64
2023/04/19 11:38:52;;;;;;;27.65;8.00;;;;;;;27.51;55.82;97956.03;4811100;29;20296;-68
2023/04/19 11:42:20;;;;;;;25.48;7.80;;;;;;;27.52;55.95;97950.28;4810727;29;20059;-60
2023/04/19 11:44:52;;;;;;;20.70;7.10;;;;;;;27.48;54.60;97952.03;4815760;29;20058;-63
2023/04/19 11:47:27;;;;;;;20.42;7.43;;;;;;;27.43;55.60;97946.72;4829996;29;20065;-66
2023/04/19 11:54:16;;;;;;;20.45;7.90;;;;;;;27.53;55.51;97938.25;4828434;29;20698;-71
2023/04/19 11:56:58;;;;;;;27.65;8.02;;;;;;;27.59;56.65;97941.63;4806328;29;20045;-71
2023/04/19 11:59:28;;;;;;;26.92;8.88;;;;;;;27.60;56.44;97945.94;4834849;29;20092;-70
2023/04/19 12:02:06;;;;;;;25.50;8.52;;;;;;;27.67;56.08;97948.97;4821163;29;20061;-69
2023/04/19 12:04:37;;;;;;;25.38;9.20;;;;;;;27.74;56.89;97943.84;4832291;29;20058;-64
2023/04/19 12:07:10;;;;;;;38.97;8.20;;;;;;;27.79;56.88;97934.72;4836713;29;20054;-64
2023/04/19 12:09:40;;;;;;;31.15;8.25;;;;;;;27.76;56.47;97935.34;4825470;29;20502;-64
2023/04/19 12:12:09;;;;;;;26.27;7.68;;;;;;;27.77;55.96;97934.22;4833530;29;20064;-62
2023/04/19 12:15:11;;;;;;;25.23;6.28;;;;;;;27.74;55.61;97940.31;4823698;29;20057;-63
2023/04/19 12:18:03;;;;;;;27.13;6.57;;;;;;;27.73;54.73;97955.84;4832211;29;20058;-64
2023/04/19 12:20:37;;;;;;;21.60;7.30;;;;;;;27.68;55.25;97956.81;4830578;29;20062;-64
2023/04/19 12:23:12;;;;;;;26.67;7.10;;;;;;;27.72;56.30;97961.59;4825523;29;20041;-67